Time;durP1;ratioP1;P1;durP2;ratioP2;P2;SDS_P1;SDS_P2;PMS_P1;PMS_P2;Temp;Humidity;BMP_temperature;BMP_pressure;BME280_temperature;BME280_humidity;BME280_pressure;Samples;Min_cycle;Max_cycle;Signal;HPM_P1;HPM_P2
2022/12/15 00:43:14;;;;;;;36.85;16.67;;;;;;;;;;10408681;28;20419;-75
2022/12/15 00:48:14;;;;;;;37.55;19.33;;;;;;;;;;10384157;28;20025;-72
2022/12/15 01:25:09;;;;;;;43.15;20.20;;;;;;;;;;10401537;28;20025;-77
2022/12/15 01:30:11;;;;;;;44.17;21.17;;;;;;;;;;10382205;28;20416;-76
2022/12/15 01:35:11;;;;;;;43.58;18.88;;;;;;;;;;10383310;28;20022;-73
2022/12/15 01:45:44;;;;;;;30.65;16.52;;;;;;;;;;10408367;28;20280;-74
2022/12/15 01:50:56;;;;;;;24.63;13.52;;;;;;;;;;10400392;28;20146;-71
2022/12/15 01:55:56;;;;;;;32.05;16.17;;;;;;;;;;10409469;28;20029;-73
2022/12/15 02:00:57;;;;;;;26.07;13.77;;;;;;;;;;10401516;28;20032;-73
2022/12/15 02:06:00;;;;;;;25.50;13.35;;;;;;;;;;10389746;28;20021;-77
2022/12/15 02:11:19;;;;;;;26.52;12.77;;;;;;;;;;10412252;28;20028;-74
2022/12/15 02:16:37;;;;;;;22.15;13.35;;;;;;;;;;10401487;28;20467;-72
2022/12/15 02:21:41;;;;;;;20.13;10.63;;;;;;;;;;10388545;28;20053;-77
2022/12/15 02:26:44;;;;;;;19.38;10.50;;;;;;;;;;10388748;28;20433;-71
2022/12/15 02:31:50;;;;;;;18.83;11.02;;;;;;;;;;10388181;28;20022;-76
2022/12/15 02:36:56;;;;;;;27.25;12.68;;;;;;;;;;10406634;28;20057;-72
2022/12/15 02:41:56;;;;;;;36.00;14.70;;;;;;;;;;10405511;28;20045;-72
2022/12/15 02:47:17;;;;;;;26.67;13.57;;;;;;;;;;10405836;28;20036;-76
2022/12/15 02:52:21;;;;;;;29.48;14.75;;;;;;;;;;10388580;28;20492;-73
2022/12/15 02:57:44;;;;;;;24.42;13.68;;;;;;;;;;10387938;28;20561;-73
2022/12/15 03:02:47;;;;;;;20.85;11.27;;;;;;;;;;10381141;28;20196;-75
2022/12/15 03:07:48;;;;;;;22.30;12.27;;;;;;;;;;10387237;28;20060;-72
2022/12/15 03:12:53;;;;;;;24.13;11.38;;;;;;;;;;10387086;28;20025;-72
2022/12/15 03:17:53;;;;;;;23.45;12.13;;;;;;;;;;10406472;28;20588;-71
2022/12/15 03:22:53;;;;;;;22.85;12.48;;;;;;;;;;10402735;28;20111;-76
2022/12/15 03:27:54;;;;;;;27.23;14.20;;;;;;;;;;10402687;28;20061;-78
2022/12/15 03:32:54;;;;;;;28.53;15.40;;;;;;;;;;10390547;28;20514;-76
2022/12/15 03:37:54;;;;;;;28.38;14.18;;;;;;;;;;10361069;28;20014;-76
2022/12/15 03:42:55;;;;;;;31.63;15.73;;;;;;;;;;10366285;28;20480;-72
2022/12/15 03:47:56;;;;;;;23.77;14.38;;;;;;;;;;10361791;28;20420;-72
2022/12/15 03:52:58;;;;;;;28.30;14.85;;;;;;;;;;10360790;28;20396;-71
2022/12/15 03:57:58;;;;;;;26.58;12.77;;;;;;;;;;10362258;28;20021;-72
2022/12/15 04:02:58;;;;;;;33.90;15.27;;;;;;;;;;10360653;28;20403;-71
2022/12/15 04:08:00;;;;;;;31.08;14.82;;;;;;;;;;10387761;28;20455;-75
2022/12/15 04:13:02;;;;;;;27.50;14.15;;;;;;;;;;10378362;28;20017;-77
2022/12/15 04:18:03;;;;;;;26.33;14.85;;;;;;;;;;10363981;28;20403;-76
2022/12/15 04:23:06;;;;;;;33.08;17.02;;;;;;;;;;10384368;28;20049;-77
2022/12/15 05:31:53;;;;;;;37.38;19.02;;;;;;;;;;10424397;28;20021;-76
2022/12/15 05:36:54;;;;;;;41.63;20.67;;;;;;;;;;10428220;28;20471;-75
2022/12/15 05:41:55;;;;;;;50.20;22.67;;;;;;;;;;10430667;28;20025;-72
2022/12/15 05:46:55;;;;;;;38.35;19.42;;;;;;;;;;10431358;28;20025;-76
2022/12/15 05:51:56;;;;;;;40.88;18.63;;;;;;;;;;10412071;28;20560;-73
2022/12/15 05:56:56;;;;;;;40.30;21.00;;;;;;;;;;10421208;28;20041;-75
2022/12/15 06:01:56;;;;;;;41.60;20.42;;;;;;;;;;10407279;28;20495;-75
2022/12/15 06:06:57;;;;;;;48.13;25.60;;;;;;;;;;10430327;28;20586;-73
2022/12/15 06:11:57;;;;;;;51.58;24.67;;;;;;;;;;10415629;28;20032;-77
2022/12/15 06:16:58;;;;;;;55.03;26.15;;;;;;;;;;10425957;28;20029;-72
2022/12/15 06:21:58;;;;;;;64.65;26.80;;;;;;;;;;10444028;28;20068;-73
2022/12/15 06:26:59;;;;;;;57.92;26.48;;;;;;;;;;10389826;28;20063;-76
2022/12/15 06:31:59;;;;;;;49.03;24.33;;;;;;;;;;10429821;28;20066;-77
2022/12/15 06:37:00;;;;;;;52.03;24.50;;;;;;;;;;10407802;28;20558;-75
2022/12/15 06:42:00;;;;;;;60.80;26.20;;;;;;;;;;10387525;28;20538;-72
2022/12/15 06:47:00;;;;;;;51.55;24.65;;;;;;;;;;10418327;28;20036;-73
2022/12/15 06:52:00;;;;;;;51.95;21.95;;;;;;;;;;10399993;28;20032;-72
2022/12/15 06:57:01;;;;;;;47.92;22.67;;;;;;;;;;10386835;28;20561;-78
2022/12/15 07:02:01;;;;;;;46.65;21.75;;;;;;;;;;10404521;28;20479;-76
2022/12/15 07:07:01;;;;;;;46.20;22.02;;;;;;;;;;10386350;28;20419;-76
2022/12/15 07:12:02;;;;;;;49.75;22.52;;;;;;;;;;10396054;28;20082;-74
2022/12/15 07:17:02;;;;;;;44.33;20.07;;;;;;;;;;10402136;28;20033;-78
2022/12/15 07:22:02;;;;;;;50.25;20.80;;;;;;;;;;10404278;28;20296;-78
2022/12/15 07:27:03;;;;;;;39.40;20.00;;;;;;;;;;10386103;28;20029;-78
2022/12/15 07:32:03;;;;;;;40.85;18.77;;;;;;;;;;10411762;28;20033;-72
2022/12/15 07:37:03;;;;;;;49.57;25.43;;;;;;;;;;10445050;28;20033;-72
2022/12/15 07:42:03;;;;;;;38.88;23.23;;;;;;;;;;10444298;28;20032;-75
2022/12/15 07:47:04;;;;;;;42.33;19.73;;;;;;;;;;10409507;28;20136;-73
2022/12/15 07:52:04;;;;;;;40.58;18.58;;;;;;;;;;10368720;28;20079;-76
2022/12/15 07:57:06;;;;;;;36.92;18.77;;;;;;;;;;10369191;28;20033;-76
2022/12/15 08:02:08;;;;;;;40.40;19.15;;;;;;;;;;10385445;28;20475;-75
2022/12/15 08:07:10;;;;;;;38.72;17.05;;;;;;;;;;10386757;28;20025;-75
2022/12/15 08:12:10;;;;;;;29.05;15.02;;;;;;;;;;10428529;28;20059;-77
2022/12/15 08:17:11;;;;;;;38.53;18.58;;;;;;;;;;10412944;28;20029;-74
2022/12/15 08:22:13;;;;;;;32.80;16.98;;;;;;;;;;10391397;28;20135;-79
2022/12/15 08:27:14;;;;;;;27.92;14.30;;;;;;;;;;10386811;28;20025;-73
2022/12/15 08:32:15;;;;;;;31.25;16.67;;;;;;;;;;10389863;28;20056;-71
2022/12/15 08:37:15;;;;;;;42.05;17.10;;;;;;;;;;10371382;28;20475;-72
2022/12/15 08:42:16;;;;;;;28.13;15.10;;;;;;;;;;10384568;28;20672;-72
2022/12/15 08:47:16;;;;;;;26.23;12.80;;;;;;;;;;10385013;28;20028;-75
2022/12/15 08:52:16;;;;;;;28.77;13.35;;;;;;;;;;10402102;28;20025;-73
2022/12/15 08:57:16;;;;;;;25.75;13.55;;;;;;;;;;10401938;28;20021;-74
2022/12/15 09:02:17;;;;;;;30.80;15.68;;;;;;;;;;10384613;28;20029;-73
2022/12/15 09:07:17;;;;;;;22.63;12.47;;;;;;;;;;10383864;28;20124;-76
2022/12/15 09:12:17;;;;;;;28.02;12.70;;;;;;;;;;10383753;28;20056;-76
2022/12/15 09:17:17;;;;;;;20.23;11.23;;;;;;;;;;10400955;28;20494;-73
2022/12/15 09:22:19;;;;;;;22.30;12.13;;;;;;;;;;10382700;28;20534;-76
2022/12/15 09:27:20;;;;;;;24.58;13.13;;;;;;;;;;10410808;28;20079;-77
2022/12/15 09:32:20;;;;;;;21.58;12.13;;;;;;;;;;10425725;28;20100;-80
2022/12/15 09:37:20;;;;;;;20.95;11.95;;;;;;;;;;10382970;28;20415;-73
2022/12/15 09:42:23;;;;;;;26.73;14.35;;;;;;;;;;10400557;28;20101;-76
2022/12/15 09:47:31;;;;;;;27.02;15.35;;;;;;;;;;10382801;28;20021;-76
2022/12/15 09:52:34;;;;;;;31.13;16.13;;;;;;;;;;10396296;28;20018;-74
2022/12/15 09:57:36;;;;;;;32.88;19.50;;;;;;;;;;10382494;28;20029;-75
2022/12/15 10:02:49;;;;;;;39.97;20.48;;;;;;;;;;10381880;28;20044;-77
2022/12/15 10:07:50;;;;;;;39.95;23.17;;;;;;;;;;10382316;28;20045;-77
2022/12/15 10:12:52;;;;;;;36.42;18.92;;;;;;;;;;10384869;28;20010;-76
2022/12/15 10:17:55;;;;;;;42.03;20.90;;;;;;;;;;10389379;28;20037;-75
2022/12/15 10:22:58;;;;;;;42.55;22.98;;;;;;;;;;10389605;28;20056;-78
2022/12/15 10:28:17;;;;;;;45.42;22.15;;;;;;;;;;10407013;28;20045;-71
2022/12/15 10:33:20;;;;;;;43.63;24.55;;;;;;;;;;10406672;28;20514;-72
2022/12/15 10:38:20;;;;;;;45.50;24.75;;;;;;;;;;10388240;28;20030;-76
2022/12/15 10:43:23;;;;;;;44.30;24.63;;;;;;;;;;10407927;28;20025;-76
2022/12/15 10:48:24;;;;;;;45.85;23.40;;;;;;;;;;10447820;28;20025;-77
2022/12/15 10:53:37;;;;;;;46.80;24.25;;;;;;;;;;10421720;28;20031;-74
2022/12/15 10:58:45;;;;;;;43.42;23.00;;;;;;;;;;10436575;28;20017;-74
2022/12/15 11:03:45;;;;;;;49.27;24.27;;;;;;;;;;10416180;28;20033;-72
2022/12/15 11:08:46;;;;;;;47.33;26.08;;;;;;;;;;10408432;28;20287;-72
2022/12/15 11:14:04;;;;;;;45.13;23.25;;;;;;;;;;10387236;28;20021;-74
2022/12/15 11:19:10;;;;;;;41.42;22.50;;;;;;;;;;10387020;28;20025;-73
2022/12/15 11:24:15;;;;;;;40.25;20.83;;;;;;;;;;10404403;28;20057;-73
2022/12/15 11:29:22;;;;;;;39.00;20.92;;;;;;;;;;10403758;28;20087;-74
2022/12/15 11:34:24;;;;;;;44.25;20.27;;;;;;;;;;10403681;28;20518;-72
2022/12/15 11:39:35;;;;;;;43.13;21.52;;;;;;;;;;10421613;28;20111;-73
2022/12/15 11:44:38;;;;;;;41.35;19.90;;;;;;;;;;10407553;28;20423;-73
2022/12/15 11:49:47;;;;;;;47.83;19.75;;;;;;;;;;10385369;28;20407;-73
2022/12/15 11:54:47;;;;;;;38.25;19.50;;;;;;;;;;10385422;28;20083;-73
2022/12/15 12:00:07;;;;;;;40.13;21.67;;;;;;;;;;10385233;28;20128;-73
2022/12/15 12:05:19;;;;;;;37.35;20.52;;;;;;;;;;10384727;28;20502;-74
2022/12/15 12:10:20;;;;;;;36.05;19.33;;;;;;;;;;10384895;28;20069;-74
2022/12/15 12:15:23;;;;;;;39.17;20.92;;;;;;;;;;10384848;28;20136;-78
2022/12/15 12:20:28;;;;;;;37.22;21.45;;;;;;;;;;10384362;28;20057;-73
2022/12/15 12:25:30;;;;;;;39.65;21.38;;;;;;;;;;10402836;28;20147;-77
2022/12/15 12:30:43;;;;;;;43.60;21.50;;;;;;;;;;10402007;28;20028;-78
2022/12/15 12:35:51;;;;;;;34.13;19.13;;;;;;;;;;10383696;28;20029;-73
2022/12/15 12:41:04;;;;;;;44.15;20.88;;;;;;;;;;10401235;28;20098;-78
2022/12/15 12:46:07;;;;;;;40.17;21.92;;;;;;;;;;10383353;28;20029;-72
2022/12/15 12:51:28;;;;;;;38.40;20.45;;;;;;;;;;10383295;28;20404;-79
2022/12/15 12:56:34;;;;;;;43.58;21.15;;;;;;;;;;10390011;28;20049;-73
2022/12/15 13:01:36;;;;;;;40.72;22.08;;;;;;;;;;10385009;28;20112;-77
2022/12/15 13:06:39;;;;;;;46.30;23.08;;;;;;;;;;10403585;28;20021;-78
2022/12/15 13:11:58;;;;;;;50.38;21.55;;;;;;;;;;10445872;28;20061;-74
2022/12/15 13:17:05;;;;;;;39.42;20.77;;;;;;;;;;10417681;28;20120;-78
2022/12/15 13:22:21;;;;;;;43.60;22.35;;;;;;;;;;10421634;28;20426;-72
2022/12/15 13:27:22;;;;;;;41.53;21.67;;;;;;;;;;10382449;28;20025;-75
2022/12/15 13:32:35;;;;;;;41.30;23.48;;;;;;;;;;10413335;28;20083;-76
2022/12/15 13:37:51;;;;;;;56.53;26.73;;;;;;;;;;10390343;28;20464;-71
2022/12/15 13:42:58;;;;;;;50.97;27.38;;;;;;;;;;10410148;28;20052;-73
2022/12/15 13:47:59;;;;;;;51.30;26.53;;;;;;;;;;10426692;28;20400;-72
2022/12/15 13:53:02;;;;;;;52.67;26.70;;;;;;;;;;10417447;28;20088;-72
2022/12/15 13:58:06;;;;;;;49.55;23.92;;;;;;;;;;10409717;28;20439;-72
2022/12/15 14:03:10;;;;;;;46.45;24.10;;;;;;;;;;10410611;28;20021;-73
2022/12/15 14:08:14;;;;;;;47.15;23.50;;;;;;;;;;10440851;28;20033;-71
2022/12/15 14:13:32;;;;;;;53.40;26.70;;;;;;;;;;10423774;28;20455;-75
2022/12/15 14:18:34;;;;;;;56.95;29.17;;;;;;;;;;10425668;28;20082;-77
2022/12/15 14:23:39;;;;;;;58.97;28.02;;;;;;;;;;10439481;28;20065;-76
2022/12/15 14:28:41;;;;;;;58.75;28.50;;;;;;;;;;10406701;28;20028;-72
2022/12/15 14:33:43;;;;;;;57.35;26.83;;;;;;;;;;10401999;28;20104;-76
2022/12/15 14:38:43;;;;;;;61.75;27.33;;;;;;;;;;10412199;28;20076;-77
2022/12/15 14:43:44;;;;;;;56.42;28.00;;;;;;;;;;10416740;28;20104;-75
2022/12/15 14:48:55;;;;;;;56.60;27.13;;;;;;;;;;10445732;28;20493;-75
2022/12/15 14:53:55;;;;;;;57.30;26.77;;;;;;;;;;10406531;28;20059;-78
2022/12/15 14:59:03;;;;;;;62.13;27.58;;;;;;;;;;10420987;28;20567;-75
2022/12/15 15:04:05;;;;;;;55.58;25.73;;;;;;;;;;10433146;28;20029;-75
2022/12/15 15:09:38;;;;;;;54.83;26.15;;;;;;;;;;10418146;28;20107;-73
2022/12/15 15:14:41;;;;;;;65.50;27.42;;;;;;;;;;10387196;28;20507;-73
2022/12/15 15:19:45;;;;;;;62.90;25.02;;;;;;;;;;10418516;28;20021;-73
2022/12/15 15:24:49;;;;;;;59.92;25.83;;;;;;;;;;10451707;28;20041;-76
2022/12/15 15:29:49;;;;;;;59.28;29.88;;;;;;;;;;10413296;28;20517;-72
2022/12/15 15:34:51;;;;;;;63.15;27.98;;;;;;;;;;10437256;28;20027;-73
2022/12/15 15:39:52;;;;;;;65.18;28.90;;;;;;;;;;10444003;28;20025;-71
2022/12/15 15:44:53;;;;;;;53.60;26.92;;;;;;;;;;10419963;28;20033;-71
2022/12/15 15:49:54;;;;;;;49.80;24.88;;;;;;;;;;10417456;28;20079;-72
2022/12/15 15:54:54;;;;;;;51.47;23.48;;;;;;;;;;10413517;28;20447;-74
2022/12/15 15:59:56;;;;;;;48.30;23.93;;;;;;;;;;10406079;28;20025;-72
2022/12/15 16:04:56;;;;;;;56.67;26.38;;;;;;;;;;10413727;28;20026;-72
2022/12/15 16:09:56;;;;;;;47.47;22.17;;;;;;;;;;10439142;28;20510;-72
2022/12/15 16:14:56;;;;;;;50.75;23.85;;;;;;;;;;10411334;28;20065;-71
2022/12/15 16:19:57;;;;;;;59.58;24.77;;;;;;;;;;10437393;28;20618;-76
2022/12/15 16:24:57;;;;;;;63.30;28.83;;;;;;;;;;10399129;28;20550;-76
2022/12/15 16:29:57;;;;;;;85.65;37.45;;;;;;;;;;10400905;28;20461;-72
2022/12/15 16:34:57;;;;;;;77.93;35.47;;;;;;;;;;10418707;28;20029;-73
2022/12/15 16:39:58;;;;;;;80.13;34.73;;;;;;;;;;10428408;28;20361;-73
2022/12/15 16:44:58;;;;;;;78.03;38.13;;;;;;;;;;10411419;28;20481;-71
2022/12/15 16:49:59;;;;;;;79.03;37.70;;;;;;;;;;10412423;28;20463;-71
2022/12/15 16:54:59;;;;;;;94.15;40.85;;;;;;;;;;10428147;28;20024;-72
2022/12/15 17:00:00;;;;;;;91.87;40.90;;;;;;;;;;10439881;28;20043;-78
2022/12/15 17:05:00;;;;;;;91.93;37.50;;;;;;;;;;10393240;28;20079;-71
2022/12/15 17:10:01;;;;;;;79.32;36.67;;;;;;;;;;10420321;28;20119;-75
2022/12/15 17:15:01;;;;;;;76.40;34.92;;;;;;;;;;10418147;28;20642;-74
2022/12/15 17:20:01;;;;;;;79.22;38.90;;;;;;;;;;10409952;28;20057;-72
2022/12/15 17:25:02;;;;;;;85.43;38.63;;;;;;;;;;10416503;28;20064;-76
2022/12/15 17:30:02;;;;;;;85.00;39.93;;;;;;;;;;10423666;28;20118;-73
2022/12/15 17:35:03;;;;;;;78.10;39.20;;;;;;;;;;10418826;28;20021;-71
2022/12/15 17:40:13;;;;;;;76.20;35.60;;;;;;;;;;10418707;28;20313;-70
2022/12/15 17:45:21;;;;;;;80.32;36.17;;;;;;;;;;10439995;28;20623;-73
2022/12/15 17:50:23;;;;;;;68.40;32.83;;;;;;;;;;10441616;28;20021;-73
2022/12/15 17:55:25;;;;;;;64.50;32.50;;;;;;;;;;10425624;28;20598;-71
2022/12/15 18:00:27;;;;;;;71.80;36.15;;;;;;;;;;10423184;28;20036;-74
2022/12/15 18:05:28;;;;;;;68.47;32.40;;;;;;;;;;10429819;28;20331;-72
2022/12/15 18:10:35;;;;;;;65.80;34.08;;;;;;;;;;10425621;28;20025;-74
2022/12/15 18:15:36;;;;;;;70.20;33.03;;;;;;;;;;10419926;28;20028;-71
2022/12/15 18:20:36;;;;;;;66.57;31.90;;;;;;;;;;10423344;28;20060;-72
2022/12/15 18:25:36;;;;;;;65.97;28.87;;;;;;;;;;10445706;28;20487;-74
2022/12/15 18:30:36;;;;;;;58.38;29.85;;;;;;;;;;10432133;28;20492;-72
2022/12/15 18:35:39;;;;;;;60.85;28.27;;;;;;;;;;10428398;28;20021;-71
2022/12/15 18:40:40;;;;;;;54.70;27.35;;;;;;;;;;10425399;28;20056;-72
2022/12/15 18:45:40;;;;;;;59.97;29.45;;;;;;;;;;10440646;28;20115;-72
2022/12/15 18:50:41;;;;;;;58.45;28.50;;;;;;;;;;10414116;28;20029;-75
2022/12/15 18:55:41;;;;;;;64.90;31.07;;;;;;;;;;10417813;28;20079;-74
2022/12/15 19:00:41;;;;;;;63.17;30.70;;;;;;;;;;10416003;28;20031;-72
2022/12/15 19:05:42;;;;;;;62.92;29.65;;;;;;;;;;10432030;28;20475;-72
2022/12/15 19:10:47;;;;;;;65.13;32.42;;;;;;;;;;10405168;28;20502;-74
2022/12/15 19:15:49;;;;;;;72.53;35.08;;;;;;;;;;10437289;28;20055;-72
2022/12/15 19:26:10;;;;;;;68.55;33.03;;;;;;;;;;10440471;28;20067;-75
2022/12/15 19:31:10;;;;;;;64.97;31.80;;;;;;;;;;10424278;28;20063;-77
2022/12/15 19:36:21;;;;;;;65.80;32.88;;;;;;;;;;10420671;28;20131;-76
2022/12/15 19:41:22;;;;;;;64.18;31.15;;;;;;;;;;10440589;28;20889;-71
2022/12/15 19:46:23;;;;;;;71.43;33.80;;;;;;;;;;10435816;28;20028;-75
2022/12/15 19:51:24;;;;;;;77.72;38.60;;;;;;;;;;10419553;28;20025;-76
2022/12/15 19:56:25;;;;;;;87.32;40.55;;;;;;;;;;10422653;28;20037;-73
2022/12/15 20:01:26;;;;;;;82.38;38.55;;;;;;;;;;10439244;28;20051;-72
2022/12/15 20:06:26;;;;;;;92.75;43.83;;;;;;;;;;10419982;28;20025;-72
2022/12/15 20:11:28;;;;;;;89.93;44.37;;;;;;;;;;10419279;28;20020;-75
2022/12/15 20:16:29;;;;;;;95.95;43.08;;;;;;;;;;10421136;28;20579;-73
2022/12/15 20:21:34;;;;;;;105.90;45.27;;;;;;;;;;10420658;28;20119;-70
2022/12/15 20:26:35;;;;;;;97.13;43.45;;;;;;;;;;10419258;28;20025;-71
2022/12/15 20:31:36;;;;;;;91.60;45.97;;;;;;;;;;10447506;28;20092;-73
2022/12/15 20:36:37;;;;;;;98.68;43.47;;;;;;;;;;10430560;28;20527;-74
2022/12/15 20:41:37;;;;;;;111.40;53.58;;;;;;;;;;10433083;28;20355;-72
2022/12/15 20:46:38;;;;;;;107.07;50.63;;;;;;;;;;10428152;28;20025;-74
2022/12/15 20:51:38;;;;;;;102.45;52.22;;;;;;;;;;10416677;28;20108;-73
2022/12/15 20:56:39;;;;;;;109.00;49.53;;;;;;;;;;10433745;28;20060;-72
2022/12/15 21:01:40;;;;;;;105.27;54.63;;;;;;;;;;10405522;28;20396;-72
2022/12/15 21:06:40;;;;;;;103.93;51.95;;;;;;;;;;10415939;28;20800;-76
2022/12/15 21:11:42;;;;;;;116.88;59.72;;;;;;;;;;10415794;28;20024;-75
2022/12/15 21:16:42;;;;;;;152.18;73.07;;;;;;;;;;10410690;28;20036;-72
2022/12/15 21:21:48;;;;;;;156.13;73.18;;;;;;;;;;10403696;28;20550;-74
2022/12/15 21:26:48;;;;;;;158.05;73.70;;;;;;;;;;10419089;28;20060;-71
2022/12/15 21:31:50;;;;;;;152.20;75.43;;;;;;;;;;10430177;28;20111;-74
2022/12/15 21:36:53;;;;;;;147.00;73.50;;;;;;;;;;10402331;28;20087;-74
2022/12/15 21:41:54;;;;;;;165.57;79.13;;;;;;;;;;10434406;28;20029;-72
2022/12/15 21:46:55;;;;;;;148.65;65.97;;;;;;;;;;10411321;28;20498;-74
2022/12/15 21:51:56;;;;;;;163.40;71.70;;;;;;;;;;10405727;28;20401;-76
2022/12/15 21:56:58;;;;;;;159.15;69.05;;;;;;;;;;10435913;28;20041;-74
2022/12/15 22:02:00;;;;;;;160.18;71.70;;;;;;;;;;10417889;28;20029;-72
2022/12/15 22:07:00;;;;;;;159.90;65.30;;;;;;;;;;10433627;28;20036;-71
2022/12/15 22:12:01;;;;;;;149.38;61.33;;;;;;;;;;10430011;28;20431;-73
2022/12/15 22:17:09;;;;;;;151.13;61.45;;;;;;;;;;10426998;28;20039;-73
2022/12/15 22:22:10;;;;;;;135.35;60.90;;;;;;;;;;10392567;28;20049;-77
2022/12/15 22:27:18;;;;;;;146.63;61.40;;;;;;;;;;10405006;28;20495;-73
2022/12/15 22:32:19;;;;;;;125.13;50.92;;;;;;;;;;10395930;28;20120;-76
2022/12/15 22:37:19;;;;;;;132.83;50.93;;;;;;;;;;10439366;28;20017;-75
2022/12/15 22:42:19;;;;;;;134.32;53.05;;;;;;;;;;10425144;28;20021;-74
2022/12/15 22:47:20;;;;;;;151.73;59.67;;;;;;;;;;10454105;28;20036;-73
2022/12/15 22:52:21;;;;;;;144.02;55.42;;;;;;;;;;10425979;28;20472;-74
2022/12/15 22:57:22;;;;;;;137.20;58.00;;;;;;;;;;10428483;28;20025;-79
2022/12/15 23:02:23;;;;;;;143.10;57.45;;;;;;;;;;10416896;28;20029;-74
2022/12/15 23:07:23;;;;;;;139.68;59.10;;;;;;;;;;10406366;28;20026;-74
2022/12/15 23:12:24;;;;;;;134.55;53.42;;;;;;;;;;10406596;28;20091;-79
2022/12/15 23:17:24;;;;;;;133.30;53.03;;;;;;;;;;10407118;28;20029;-76
2022/12/15 23:22:24;;;;;;;141.43;56.83;;;;;;;;;;10405084;28;20049;-78
2022/12/15 23:27:25;;;;;;;142.37;54.80;;;;;;;;;;10404613;28;20466;-74
2022/12/15 23:32:25;;;;;;;133.15;54.05;;;;;;;;;;10412745;28;20272;-73
2022/12/15 23:37:26;;;;;;;158.07;50.50;;;;;;;;;;10402679;28;20529;-77
2022/12/15 23:42:27;;;;;;;163.75;48.85;;;;;;;;;;10426591;28;20033;-74
2022/12/15 23:47:27;;;;;;;139.10;49.60;;;;;;;;;;10405539;28;20030;-73
2022/12/15 23:52:27;;;;;;;129.47;47.77;;;;;;;;;;10402211;28;20029;-71
2022/12/15 23:57:28;;;;;;;117.65;46.30;;;;;;;;;;10402504;28;20322;-74
